createdAt,value
2018-12-20T00:01:29.950Z,5.19
2018-12-20T00:04:33.587Z,5.36
2018-12-20T00:07:37.232Z,5.30
2018-12-20T00:10:40.817Z,5.37
2018-12-20T00:13:44.584Z,5.41
2018-12-20T00:16:52.329Z,5.48
2018-12-20T00:19:56.001Z,5.53
2018-12-20T00:22:59.590Z,5.56
2018-12-20T00:26:03.343Z,5.54
2018-12-20T00:29:07.050Z,5.55
2018-12-20T00:32:10.654Z,5.54
2018-12-20T00:35:14.295Z,5.56
2018-12-20T00:38:17.777Z,5.60
2018-12-20T00:41:21.504Z,5.62
2018-12-20T00:44:25.201Z,5.64
2018-12-20T00:47:28.738Z,5.60
2018-12-20T00:50:32.483Z,5.62
2018-12-20T00:53:36.158Z,5.66
2018-12-20T00:56:39.803Z,5.59
2018-12-20T00:59:43.500Z,5.57
2018-12-20T01:02:47.364Z,5.60
2018-12-20T01:05:53.328Z,5.54
2018-12-20T01:08:56.864Z,5.68
2018-12-20T01:12:00.466Z,5.59
2018-12-20T01:15:04.835Z,5.78
2018-12-20T01:18:08.423Z,5.76
2018-12-20T01:21:12.043Z,5.68
2018-12-20T01:24:15.613Z,5.75
2018-12-20T01:27:19.310Z,5.65
2018-12-20T01:30:23.030Z,5.72
2018-12-20T01:33:26.825Z,5.70
2018-12-20T01:36:30.322Z,5.62
2018-12-20T01:39:34.037Z,5.53
2018-12-20T01:42:37.870Z,5.66
2018-12-20T01:45:41.914Z,5.63
2018-12-20T01:48:45.389Z,5.64
2018-12-20T01:51:49.195Z,5.71
2018-12-20T01:54:53.155Z,5.67
2018-12-20T01:57:56.919Z,5.72
2018-12-20T02:01:00.499Z,5.80
2018-12-20T02:04:04.073Z,5.68
2018-12-20T02:07:07.626Z,5.77
2018-12-20T02:10:11.418Z,5.85
2018-12-20T02:13:15.049Z,5.80
2018-12-20T02:16:18.759Z,5.81
2018-12-20T02:19:22.349Z,5.83
2018-12-20T02:22:26.078Z,5.76
2018-12-20T02:25:29.679Z,5.68
2018-12-20T02:28:33.477Z,5.82
2018-12-20T02:31:37.089Z,5.74
2018-12-20T02:34:40.725Z,5.84
2018-12-20T02:37:44.524Z,5.71
2018-12-20T02:40:48.132Z,5.68
2018-12-20T02:43:51.743Z,5.67
2018-12-20T02:46:55.393Z,5.61
2018-12-20T02:49:59.060Z,5.70
2018-12-20T02:53:02.719Z,5.69
2018-12-20T02:56:06.155Z,5.72
2018-12-20T02:59:10.267Z,5.72
2018-12-20T03:02:14.049Z,5.79
2018-12-20T03:05:17.719Z,5.79
2018-12-20T03:08:21.400Z,5.85
2018-12-20T03:11:25.077Z,5.86
2018-12-20T03:14:28.964Z,5.82
2018-12-20T03:17:32.718Z,5.81
2018-12-20T03:20:36.545Z,5.82
2018-12-20T03:23:40.172Z,5.75
2018-12-20T03:26:43.762Z,5.63
2018-12-20T03:29:47.431Z,5.60
2018-12-20T03:32:50.993Z,5.52
2018-12-20T03:35:54.486Z,5.74
2018-12-20T03:38:58.712Z,5.74
2018-12-20T03:42:02.236Z,5.83
2018-12-20T03:45:06.139Z,5.81
2018-12-20T03:48:09.694Z,5.85
2018-12-20T03:51:13.494Z,5.87
2018-12-20T03:54:17.379Z,5.87
2018-12-20T03:57:21.040Z,5.90
2018-12-20T04:00:24.946Z,5.87
2018-12-20T04:03:28.781Z,5.84
2018-12-20T04:06:32.346Z,5.82
2018-12-20T04:09:35.826Z,5.84
2018-12-20T04:12:39.426Z,5.84
2018-12-20T04:15:43.124Z,5.87
2018-12-20T04:18:46.771Z,5.94
2018-12-20T04:21:50.363Z,5.81
2018-12-20T04:24:53.925Z,5.92
2018-12-20T04:27:57.574Z,5.96
2018-12-20T04:31:01.389Z,5.82
2018-12-20T04:34:05.080Z,5.77
2018-12-20T04:37:08.710Z,5.85
2018-12-20T04:40:12.336Z,6.02
2018-12-20T04:43:16.097Z,6.05
2018-12-20T04:46:19.686Z,5.93
2018-12-20T04:49:23.241Z,6.02
2018-12-20T04:52:26.941Z,5.99
2018-12-20T04:55:30.584Z,5.95
2018-12-20T04:58:34.092Z,5.83
2018-12-20T05:01:37.550Z,5.85
2018-12-20T05:04:41.207Z,5.84
2018-12-20T05:07:45.070Z,5.82
2018-12-20T05:10:48.758Z,5.84
2018-12-20T05:13:53.439Z,6.00
2018-12-20T05:16:57.186Z,6.04
2018-12-20T05:20:00.848Z,5.91
2018-12-20T05:23:04.822Z,6.09
2018-12-20T05:26:08.548Z,6.06
2018-12-20T05:29:12.114Z,5.87
2018-12-20T05:32:15.563Z,5.82
2018-12-20T05:35:19.227Z,5.74
2018-12-20T05:38:22.879Z,5.87
2018-12-20T05:41:26.571Z,5.77
2018-12-20T05:44:30.279Z,5.74
2018-12-20T05:47:34.213Z,5.74
2018-12-20T05:50:37.820Z,5.68
2018-12-20T05:53:41.374Z,5.79
2018-12-20T05:56:45.364Z,5.68
2018-12-20T05:59:49.233Z,5.71
2018-12-20T06:02:53.436Z,5.57
2018-12-20T06:05:57.158Z,5.67
2018-12-20T06:09:00.880Z,5.65
2018-12-20T06:12:04.732Z,5.62
2018-12-20T06:15:08.613Z,5.60
2018-12-20T06:18:12.147Z,5.50
2018-12-20T06:21:16.727Z,5.47
2018-12-20T06:24:20.342Z,5.57
2018-12-20T06:27:23.811Z,5.65
2018-12-20T06:30:27.321Z,5.65
2018-12-20T06:33:31.006Z,5.63
2018-12-20T06:36:34.493Z,5.56
2018-12-20T06:39:37.911Z,5.57
2018-12-20T06:42:41.415Z,5.74
2018-12-20T06:45:44.946Z,5.60
2018-12-20T06:48:48.438Z,5.71
2018-12-20T06:51:52.025Z,5.62
2018-12-20T06:54:55.538Z,5.50
2018-12-20T06:57:59.144Z,5.50
2018-12-20T07:01:02.676Z,5.57
2018-12-20T07:04:06.207Z,5.51
2018-12-20T07:07:09.706Z,5.64
2018-12-20T07:10:13.346Z,5.62
2018-12-20T07:13:16.900Z,5.68
2018-12-20T07:16:20.466Z,5.61
2018-12-20T07:19:24.092Z,5.87
2018-12-20T07:22:27.782Z,5.98
2018-12-20T07:25:31.212Z,5.84
2018-12-20T07:28:34.702Z,5.86
2018-12-20T07:31:38.196Z,5.79
2018-12-20T07:34:47.894Z,5.81
2018-12-20T07:37:47.151Z,5.92
2018-12-20T07:40:50.608Z,5.89
2018-12-20T07:43:54.167Z,5.82
2018-12-20T07:46:57.947Z,5.93
2018-12-20T07:50:01.480Z,6.11
2018-12-20T07:53:04.957Z,6.05
2018-12-20T07:56:08.425Z,6.05
2018-12-20T07:59:11.895Z,6.09
2018-12-20T08:02:15.490Z,6.04
2018-12-20T08:05:19.009Z,5.97
2018-12-20T08:08:22.570Z,6.05
2018-12-20T08:11:26.061Z,6.07
2018-12-20T08:14:29.510Z,6.01
2018-12-20T08:17:33.083Z,6.10
2018-12-20T08:20:36.706Z,5.94
2018-12-20T08:23:40.233Z,5.98
2018-12-20T08:26:43.801Z,5.93
2018-12-20T08:29:47.418Z,6.06
2018-12-20T08:32:50.923Z,6.00
2018-12-20T08:35:54.461Z,6.01
2018-12-20T08:38:58.051Z,6.29
2018-12-20T08:42:01.692Z,6.35
2018-12-20T08:45:05.678Z,6.37
2018-12-20T08:48:09.167Z,6.25
2018-12-20T08:51:12.650Z,6.31
2018-12-20T08:54:16.568Z,6.13
2018-12-20T08:57:20.026Z,6.15
2018-12-20T09:00:23.531Z,6.30
2018-12-20T09:03:26.977Z,6.30
2018-12-20T09:06:30.489Z,6.30
2018-12-20T09:09:34.529Z,6.28
2018-12-20T09:12:38.042Z,6.21
2018-12-20T09:15:41.517Z,6.22
2018-12-20T09:18:44.995Z,6.25
2018-12-20T09:21:48.557Z,6.38
2018-12-20T09:24:52.111Z,6.40
2018-12-20T09:27:55.630Z,6.51
2018-12-20T09:30:59.466Z,6.56
2018-12-20T09:34:02.982Z,6.57
2018-12-20T09:37:06.570Z,6.49
2018-12-20T09:40:10.194Z,6.48
2018-12-20T09:43:13.705Z,6.49
2018-12-20T09:46:17.286Z,6.51
2018-12-20T09:49:20.876Z,6.80
2018-12-20T09:52:24.462Z,6.78
2018-12-20T09:55:28.046Z,6.68
2018-12-20T09:58:31.626Z,6.60
2018-12-20T10:01:35.182Z,6.69
2018-12-20T10:04:38.710Z,6.71
2018-12-20T10:07:42.486Z,6.74
2018-12-20T10:10:46.083Z,6.71
2018-12-20T10:13:49.602Z,6.68
2018-12-20T10:16:53.521Z,6.75
2018-12-20T10:19:57.078Z,6.99
2018-12-20T10:23:00.553Z,7.08
2018-12-20T10:26:04.123Z,7.05
2018-12-20T10:29:07.647Z,7.08
2018-12-20T10:32:11.201Z,7.27
2018-12-20T10:35:14.700Z,7.29
2018-12-20T10:38:18.314Z,7.42
2018-12-20T10:41:21.831Z,7.49
2018-12-20T10:44:25.358Z,7.57
2018-12-20T10:47:29.787Z,7.33
2018-12-20T10:50:33.460Z,7.33
2018-12-20T10:53:37.046Z,7.37
2018-12-20T10:56:40.722Z,7.40
2018-12-20T10:59:44.293Z,7.42
2018-12-20T11:02:53.151Z,7.41
2018-12-20T11:06:01.544Z,7.78
2018-12-20T11:09:12.684Z,7.74
2018-12-20T11:12:20.467Z,7.72
2018-12-20T11:15:24.212Z,7.72
2018-12-20T11:18:27.842Z,7.89
2018-12-20T11:21:31.390Z,7.72
2018-12-20T11:24:35.938Z,8.05
2018-12-20T11:27:39.705Z,8.19
2018-12-20T11:30:43.242Z,8.22
2018-12-20T11:33:46.797Z,8.12
2018-12-20T11:36:50.300Z,8.07
2018-12-20T11:39:59.395Z,8.13
2018-12-20T11:42:59.680Z,8.29
2018-12-20T11:46:03.296Z,8.06
2018-12-20T11:49:06.953Z,7.96
2018-12-20T11:52:10.441Z,8.14
2018-12-20T11:55:13.970Z,8.17
2018-12-20T11:58:17.487Z,8.37
2018-12-20T12:01:21.111Z,8.66
2018-12-20T12:04:24.698Z,8.34
2018-12-20T12:07:28.282Z,8.31
2018-12-20T12:10:31.931Z,8.34
2018-12-20T12:13:35.585Z,8.53
2018-12-20T12:16:39.224Z,8.74
2018-12-20T12:19:42.869Z,8.58
2018-12-20T12:22:46.385Z,8.55
2018-12-20T12:25:49.984Z,8.47
2018-12-20T12:28:53.749Z,8.34
2018-12-20T12:31:57.215Z,8.36
2018-12-20T12:35:00.690Z,8.35
2018-12-20T12:38:04.265Z,8.30
2018-12-20T12:41:07.875Z,8.20
2018-12-20T12:44:11.370Z,8.07
2018-12-20T12:47:16.972Z,8.15
2018-12-20T12:50:20.490Z,8.04
2018-12-20T12:53:24.148Z,7.93
2018-12-20T12:56:27.643Z,7.97
2018-12-20T12:59:31.120Z,8.00
2018-12-20T13:02:34.614Z,8.04
2018-12-20T13:05:38.149Z,8.11
2018-12-20T13:08:41.702Z,8.07
2018-12-20T13:11:45.226Z,8.00
2018-12-20T13:14:48.762Z,7.94
2018-12-20T13:17:52.255Z,7.84
2018-12-20T13:20:55.826Z,7.92
2018-12-20T13:24:00.009Z,7.88
2018-12-20T13:27:05.640Z,7.89
2018-12-20T13:30:11.501Z,7.86
2018-12-20T13:33:15.095Z,7.96
2018-12-20T13:36:18.545Z,7.96
2018-12-20T13:39:22.081Z,7.96
2018-12-20T13:42:25.666Z,7.82
2018-12-20T13:45:29.949Z,7.76
2018-12-20T13:48:33.487Z,7.68
2018-12-20T13:51:37.016Z,7.74
2018-12-20T13:54:40.632Z,7.62
2018-12-20T13:57:44.310Z,7.76
2018-12-20T14:00:47.855Z,7.57
2018-12-20T14:03:51.329Z,7.57
2018-12-20T14:06:54.860Z,7.54
2018-12-20T14:09:58.359Z,7.39
2018-12-20T14:13:01.940Z,7.37
2018-12-20T14:16:05.558Z,7.28
2018-12-20T14:19:09.150Z,7.28
2018-12-20T14:22:12.754Z,7.38
2018-12-20T14:25:16.242Z,7.43
2018-12-20T14:28:19.742Z,7.42
2018-12-20T14:31:23.254Z,7.38
2018-12-20T14:34:26.690Z,7.29
2018-12-20T14:37:30.362Z,7.26
2018-12-20T14:40:33.898Z,7.27
2018-12-20T14:43:37.464Z,7.26
2018-12-20T14:46:41.025Z,7.38
2018-12-20T14:49:44.540Z,7.27
2018-12-20T14:52:48.111Z,7.29
2018-12-20T14:55:51.687Z,7.16
2018-12-20T14:58:55.251Z,7.14
2018-12-20T15:01:58.843Z,7.13
2018-12-20T15:05:02.380Z,7.09
2018-12-20T15:08:06.013Z,7.11
2018-12-20T15:11:09.501Z,7.11
2018-12-20T15:14:13.205Z,7.08
2018-12-20T15:17:16.795Z,6.98
2018-12-20T15:20:20.313Z,7.10
2018-12-20T15:23:23.803Z,6.97
2018-12-20T15:26:27.313Z,6.86
2018-12-20T15:29:30.844Z,7.13
2018-12-20T15:32:34.344Z,6.95
2018-12-20T15:35:38.021Z,7.15
2018-12-20T15:38:41.698Z,7.11
2018-12-20T15:41:45.253Z,7.29
2018-12-20T15:44:48.874Z,7.00
2018-12-20T15:47:52.345Z,6.96
2018-12-20T15:50:55.883Z,6.83
2018-12-20T15:59:32.990Z,6.65
2018-12-20T16:02:36.723Z,6.75
2018-12-20T16:05:40.279Z,6.73
2018-12-20T16:08:43.848Z,6.76
2018-12-20T16:11:47.585Z,6.84
2018-12-20T16:14:51.072Z,6.71
2018-12-20T16:17:54.633Z,6.60
2018-12-20T16:20:58.265Z,6.74
2018-12-20T16:24:01.760Z,6.72
2018-12-20T16:27:05.369Z,6.67
2018-12-20T16:30:10.996Z,6.56
2018-12-20T16:33:14.734Z,6.58
2018-12-20T16:36:18.304Z,6.56
2018-12-20T16:39:21.835Z,6.55
2018-12-20T16:42:25.425Z,6.64
2018-12-20T16:45:28.960Z,6.53
2018-12-20T16:48:32.473Z,6.66
2018-12-20T16:51:36.149Z,6.78
2018-12-20T16:54:39.749Z,6.90
2018-12-20T16:57:43.286Z,7.09
2018-12-20T17:00:46.922Z,6.86
2018-12-20T17:03:50.477Z,6.81
2018-12-20T17:06:54.254Z,6.73
2018-12-20T17:09:57.865Z,6.76
2018-12-20T17:13:01.479Z,6.71
2018-12-20T17:16:05.202Z,6.79
2018-12-20T17:19:08.712Z,6.69
2018-12-20T17:22:12.251Z,6.70
2018-12-20T17:25:15.907Z,6.79
2018-12-20T17:28:19.433Z,6.95
2018-12-20T17:31:22.927Z,6.98
2018-12-20T17:34:26.429Z,7.04
2018-12-20T17:37:30.729Z,6.82
2018-12-20T17:40:34.219Z,6.79
2018-12-20T17:43:37.722Z,6.70
2018-12-20T17:46:41.269Z,6.53
2018-12-20T17:49:44.832Z,6.57
2018-12-20T17:52:48.519Z,6.55
2018-12-20T17:55:52.013Z,6.80
2018-12-20T17:58:55.504Z,6.63
2018-12-20T18:01:59.059Z,6.52
2018-12-20T18:05:06.845Z,6.41
2018-12-20T18:08:08.084Z,6.40
2018-12-20T18:11:11.602Z,6.40
2018-12-20T18:14:15.067Z,6.35
2018-12-20T18:17:18.634Z,6.34
2018-12-20T18:20:22.098Z,6.43
2018-12-20T18:23:25.696Z,6.38
2018-12-20T18:26:29.383Z,6.33
2018-12-20T18:29:33.014Z,6.31
2018-12-20T18:32:36.583Z,6.36
2018-12-20T18:35:40.159Z,6.34
2018-12-20T18:38:43.749Z,6.40
2018-12-20T18:41:47.254Z,6.36
2018-12-20T18:44:50.859Z,6.37
2018-12-20T18:47:54.373Z,6.36
2018-12-20T18:50:57.841Z,6.33
2018-12-20T18:54:01.332Z,6.30
2018-12-20T18:57:04.853Z,6.31
2018-12-20T19:00:10.240Z,6.35
2018-12-20T19:03:13.725Z,6.39
2018-12-20T19:06:17.337Z,6.43
2018-12-20T19:09:20.849Z,6.38
2018-12-20T19:12:24.258Z,6.36
2018-12-20T19:15:27.718Z,6.34
2018-12-20T19:18:31.154Z,6.37
2018-12-20T19:21:34.715Z,6.40
2018-12-20T19:24:38.325Z,6.44
2018-12-20T19:27:41.869Z,6.34
2018-12-20T19:30:45.359Z,6.45
2018-12-20T19:33:48.854Z,6.37
2018-12-20T19:36:52.364Z,6.37
2018-12-20T19:40:01.197Z,6.31
2018-12-20T19:43:04.984Z,6.31
2018-12-20T19:46:08.475Z,6.39
2018-12-20T19:49:12.029Z,6.34
2018-12-20T19:52:15.581Z,6.41
2018-12-20T19:55:19.042Z,6.46
2018-12-20T19:58:22.539Z,6.40
2018-12-20T20:01:26.110Z,6.39
2018-12-20T20:04:29.642Z,6.38
2018-12-20T20:07:33.144Z,6.39
2018-12-20T20:10:36.713Z,6.43
2018-12-20T20:13:40.212Z,6.42
2018-12-20T20:16:50.772Z,6.45
2018-12-20T20:19:49.233Z,6.45
2018-12-20T20:22:52.908Z,6.48
2018-12-20T20:25:56.528Z,6.44
2018-12-20T20:29:00.003Z,6.46
2018-12-20T20:32:03.662Z,6.42
2018-12-20T20:35:07.698Z,6.40
2018-12-20T20:38:11.242Z,6.48
2018-12-20T20:41:14.848Z,6.45
2018-12-20T20:44:18.429Z,6.49
2018-12-20T20:47:22.182Z,6.56
2018-12-20T20:50:26.110Z,6.64
2018-12-20T20:53:29.674Z,6.57
2018-12-20T20:56:33.218Z,6.48
2018-12-20T20:59:36.785Z,6.53
2018-12-20T21:02:40.308Z,6.51
2018-12-20T21:05:43.864Z,6.48
2018-12-20T21:08:49.186Z,6.55
2018-12-20T21:11:52.655Z,6.54
2018-12-20T21:14:56.254Z,6.49
2018-12-20T21:17:59.895Z,6.45
2018-12-20T21:21:03.362Z,6.45
2018-12-20T21:24:07.071Z,6.46
2018-12-20T21:27:10.773Z,6.51
2018-12-20T21:30:14.308Z,6.55
2018-12-20T21:33:17.980Z,6.58
2018-12-20T21:36:21.514Z,6.58
2018-12-20T21:39:25.063Z,6.60
2018-12-20T21:42:28.707Z,6.59
2018-12-20T21:45:32.383Z,6.56
2018-12-20T21:48:35.897Z,6.57
2018-12-20T21:51:39.409Z,6.58
2018-12-20T21:54:43.042Z,6.61
2018-12-20T21:57:46.578Z,6.70
2018-12-20T22:00:50.149Z,6.76
2018-12-20T22:03:54.426Z,6.66
2018-12-20T22:06:57.923Z,6.71
2018-12-20T22:10:01.628Z,6.64
2018-12-20T22:13:05.137Z,6.66
2018-12-20T22:16:08.794Z,6.63
2018-12-20T22:19:12.444Z,6.79
2018-12-20T22:22:15.981Z,6.67
2018-12-20T22:25:19.893Z,6.75
2018-12-20T22:28:23.714Z,6.71
2018-12-20T22:31:27.357Z,6.70
2018-12-20T22:34:31.470Z,6.66
2018-12-20T22:37:34.994Z,6.66
2018-12-20T22:40:38.583Z,6.67
2018-12-20T22:43:42.077Z,6.65
2018-12-20T22:46:45.727Z,6.64
2018-12-20T22:49:49.387Z,6.64
2018-12-20T22:52:52.895Z,6.69
2018-12-20T22:55:56.456Z,6.69
2018-12-20T22:58:59.997Z,6.72
2018-12-20T23:02:03.736Z,6.76
2018-12-20T23:05:07.436Z,6.78
2018-12-20T23:08:10.975Z,6.83
2018-12-20T23:11:14.528Z,6.76
2018-12-20T23:14:18.223Z,6.81
2018-12-20T23:17:22.458Z,6.79
2018-12-20T23:20:26.176Z,6.80
2018-12-20T23:23:29.688Z,6.76
2018-12-20T23:26:33.226Z,6.81
2018-12-20T23:29:36.788Z,6.81
2018-12-20T23:32:40.272Z,6.85
2018-12-20T23:35:43.901Z,6.81
2018-12-20T23:38:47.451Z,6.78
2018-12-20T23:41:50.938Z,6.95
2018-12-20T23:44:54.871Z,6.86
2018-12-20T23:47:58.361Z,6.79
2018-12-20T23:51:02.807Z,6.81
2018-12-20T23:54:06.352Z,6.79
2018-12-20T23:57:09.956Z,6.82
